createdAt,value
2023-03-19T00:00:45.558Z,70.21
2023-03-19T00:05:55.234Z,69.89
2023-03-19T00:11:00.536Z,69.85
2023-03-19T00:16:08.886Z,70.47
2023-03-19T00:21:16.644Z,70.32
2023-03-19T00:26:22.941Z,70.10
2023-03-19T00:31:33.249Z,70.52
2023-03-19T00:36:40.669Z,70.37
2023-03-19T00:41:50.557Z,70.74
2023-03-19T00:46:59.371Z,70.92
2023-03-19T00:52:06.557Z,70.61
2023-03-19T00:57:17.023Z,70.64
2023-03-19T01:02:25.084Z,70.74
2023-03-19T01:07:30.026Z,70.77
2023-03-19T01:12:40.450Z,70.73
2023-03-19T01:17:48.576Z,71.04
2023-03-19T01:22:54.282Z,71.55
2023-03-19T01:27:59.299Z,71.63
2023-03-19T01:33:14.740Z,72.21
2023-03-19T01:38:40.583Z,72.28
2023-03-19T01:43:51.371Z,72.18
2023-03-19T01:49:16.725Z,71.83
2023-03-19T01:54:31.347Z,72.32
2023-03-19T01:59:51.926Z,72.69
2023-03-19T02:05:26.052Z,72.17
2023-03-19T02:10:36.332Z,72.48
2023-03-19T02:15:42.190Z,72.98
2023-03-19T02:20:56.843Z,72.96
2023-03-19T02:26:12.246Z,73.22
2023-03-19T02:31:20.832Z,72.94
2023-03-19T02:36:31.634Z,72.71
2023-03-19T02:41:44.654Z,72.31
2023-03-19T02:46:53.160Z,72.06
2023-03-19T02:52:00.243Z,72.00
2023-03-19T02:57:08.644Z,71.65
2023-03-19T03:02:14.244Z,71.59
2023-03-19T03:07:20.126Z,71.84
2023-03-19T03:12:27.910Z,71.92
2023-03-19T03:17:32.966Z,72.06
2023-03-19T03:22:38.209Z,72.39
2023-03-19T03:27:45.910Z,72.24
2023-03-19T03:32:52.066Z,72.51
2023-03-19T03:37:58.139Z,72.50
2023-03-19T03:43:06.927Z,72.44
2023-03-19T03:48:13.851Z,72.54
2023-03-19T03:53:20.133Z,73.06
2023-03-19T03:58:28.284Z,72.83
2023-03-19T04:03:33.369Z,73.03
2023-03-19T04:08:38.585Z,73.08
2023-03-19T04:13:47.693Z,73.04
2023-03-19T04:18:55.423Z,72.27
2023-03-19T04:24:00.844Z,72.77
2023-03-19T04:29:12.101Z,72.93
2023-03-19T04:34:18.379Z,72.68
2023-03-19T04:39:23.443Z,72.68
2023-03-19T04:44:32.746Z,72.75
2023-03-19T04:49:39.951Z,72.19
2023-03-19T04:54:45.004Z,72.36
2023-03-19T04:59:55.742Z,72.06
2023-03-19T05:05:01.895Z,72.28
2023-03-19T05:10:09.273Z,72.08
2023-03-19T05:15:18.181Z,71.57
2023-03-19T05:20:32.593Z,71.79
2023-03-19T05:25:44.127Z,71.46
2023-03-19T05:30:57.336Z,71.35
2023-03-19T05:36:09.374Z,71.89
2023-03-19T05:41:32.263Z,72.34
2023-03-19T05:46:46.752Z,72.38
2023-03-19T05:51:52.827Z,72.33
2023-03-19T05:56:58.216Z,71.65
2023-03-19T06:02:36.440Z,71.01
2023-03-19T06:07:57.075Z,69.91
2023-03-19T06:13:34.683Z,68.96
2023-03-19T06:18:48.185Z,68.34
2023-03-19T06:23:56.692Z,67.07
2023-03-19T06:29:08.317Z,68.28
2023-03-19T06:34:16.744Z,67.42
2023-03-19T06:39:23.844Z,66.49
2023-03-19T06:44:32.279Z,63.24
2023-03-19T06:49:42.918Z,62.74
2023-03-19T06:54:49.250Z,62.17
2023-03-19T06:59:55.158Z,63.90
2023-03-19T07:05:02.738Z,63.62
2023-03-19T07:10:08.903Z,62.46
2023-03-19T07:15:17.699Z,60.92
2023-03-19T07:20:25.406Z,59.54
2023-03-19T07:25:32.493Z,60.20
2023-03-19T07:30:41.160Z,60.46
2023-03-19T07:35:51.521Z,60.45
2023-03-19T07:41:02.287Z,59.72
2023-03-19T07:46:08.187Z,61.72
2023-03-19T07:51:19.154Z,61.78
2023-03-19T07:56:24.497Z,60.34
2023-03-19T08:01:29.995Z,60.89
2023-03-19T08:06:40.199Z,61.73
2023-03-19T08:11:45.611Z,60.35
2023-03-19T08:16:50.889Z,59.66
2023-03-19T08:22:00.159Z,59.18
2023-03-19T08:27:05.391Z,59.42
2023-03-19T08:32:13.395Z,58.40
2023-03-19T08:37:23.269Z,58.90
2023-03-19T08:42:29.080Z,59.28
2023-03-19T08:47:34.410Z,58.07
2023-03-19T08:52:42.162Z,58.63
2023-03-19T08:57:47.215Z,58.41
2023-03-19T09:02:52.469Z,58.70
2023-03-19T09:08:02.488Z,60.02
2023-03-19T09:13:09.586Z,57.72
2023-03-19T09:18:15.786Z,59.44
2023-03-19T09:23:25.404Z,59.35
2023-03-19T09:28:31.249Z,60.51
2023-03-19T09:33:36.743Z,59.46
2023-03-19T09:38:46.665Z,57.94
2023-03-19T09:44:05.068Z,56.23
2023-03-19T09:49:19.675Z,57.99
2023-03-19T09:54:37.141Z,57.33
2023-03-19T09:59:42.776Z,56.78
2023-03-19T10:05:00.824Z,57.55
2023-03-19T10:10:22.147Z,58.02
2023-03-19T10:15:35.224Z,59.06
2023-03-19T10:20:48.879Z,58.96
2023-03-19T10:26:00.019Z,58.50
2023-03-19T10:31:26.008Z,58.94
2023-03-19T10:36:39.122Z,60.21
2023-03-19T10:42:02.506Z,58.48
2023-03-19T10:47:20.119Z,58.99
2023-03-19T10:52:32.556Z,59.51
2023-03-19T10:57:47.183Z,59.61
2023-03-19T11:02:54.433Z,59.61
2023-03-19T11:08:01.992Z,59.80
2023-03-19T11:13:34.035Z,60.19
2023-03-19T11:18:42.558Z,59.38
2023-03-19T11:23:54.601Z,58.18
2023-03-19T11:29:08.258Z,58.40
2023-03-19T11:34:30.627Z,58.39
2023-03-19T11:39:46.046Z,59.21
2023-03-19T11:45:07.268Z,58.15
2023-03-19T11:50:29.750Z,57.71
2023-03-19T11:55:42.653Z,57.12
2023-03-19T12:00:55.168Z,57.34
2023-03-19T12:06:06.274Z,57.59
2023-03-19T12:11:28.025Z,56.73
2023-03-19T12:16:48.314Z,58.23
2023-03-19T12:22:03.419Z,58.03
2023-03-19T12:27:22.964Z,58.87
2023-03-19T12:32:56.064Z,58.95
2023-03-19T12:38:08.816Z,58.79
2023-03-19T12:43:21.094Z,60.23
2023-03-19T12:48:33.235Z,59.72
2023-03-19T12:53:46.565Z,60.14
2023-03-19T12:59:03.511Z,60.15
2023-03-19T13:04:18.094Z,60.26
2023-03-19T13:09:31.618Z,61.18
2023-03-19T13:14:48.505Z,61.47
2023-03-19T13:19:57.302Z,60.89
2023-03-19T13:25:04.697Z,60.60
2023-03-19T13:30:20.656Z,59.31
2023-03-19T13:35:41.759Z,60.31
2023-03-19T13:40:51.931Z,60.78
2023-03-19T13:46:10.036Z,60.52
2023-03-19T13:51:33.135Z,60.96
2023-03-19T13:57:07.081Z,60.66
2023-03-19T14:02:41.779Z,60.77
2023-03-19T14:07:56.417Z,60.47
2023-03-19T14:13:10.270Z,60.73
2023-03-19T14:18:24.728Z,61.05
2023-03-19T14:23:42.740Z,61.69
2023-03-19T14:28:59.276Z,60.83
2023-03-19T14:34:24.225Z,61.07
2023-03-19T14:39:35.503Z,61.62
2023-03-19T14:45:12.106Z,61.28
2023-03-19T14:50:34.730Z,62.19
2023-03-19T14:55:42.396Z,61.35
2023-03-19T15:00:53.079Z,61.64
2023-03-19T15:06:01.231Z,61.83
2023-03-19T15:11:27.561Z,63.05
2023-03-19T15:16:45.928Z,63.74
2023-03-19T15:21:52.919Z,62.98
2023-03-19T15:27:01.038Z,62.14
2023-03-19T15:32:10.310Z,63.13
2023-03-19T15:37:20.396Z,62.67
2023-03-19T15:42:30.698Z,62.52
2023-03-19T15:47:39.630Z,62.40
2023-03-19T15:52:48.114Z,61.70
2023-03-19T15:57:56.715Z,62.72
2023-03-19T16:03:02.070Z,62.58
2023-03-19T16:08:18.387Z,63.11
2023-03-19T16:13:32.668Z,63.67
2023-03-19T16:18:45.906Z,65.50
2023-03-19T16:23:57.026Z,63.42
2023-03-19T16:29:09.691Z,67.56
2023-03-19T16:34:32.557Z,80.97
2023-03-19T16:39:39.868Z,86.07
2023-03-19T16:44:50.055Z,86.72
2023-03-19T16:49:54.984Z,87.41
2023-03-19T16:55:04.837Z,88.41
2023-03-19T17:00:20.719Z,91.06
2023-03-19T17:05:26.826Z,91.40
2023-03-19T17:10:36.470Z,91.95
2023-03-19T17:15:46.482Z,93.68
2023-03-19T17:20:57.938Z,94.98
2023-03-19T17:26:07.071Z,96.52
2023-03-19T17:31:26.869Z,99.01
2023-03-19T17:36:33.426Z,100.00
2023-03-19T17:41:39.228Z,100.00
2023-03-19T17:46:52.342Z,100.00
2023-03-19T17:51:58.822Z,100.00
2023-03-19T17:57:04.234Z,100.00
2023-03-19T18:02:27.300Z,100.00
2023-03-19T18:07:32.794Z,100.00
2023-03-19T18:12:37.791Z,100.00
2023-03-19T18:17:49.114Z,100.00
2023-03-19T18:22:55.851Z,100.00
2023-03-19T18:28:01.423Z,100.00
2023-03-19T18:33:13.818Z,100.00
2023-03-19T18:38:23.800Z,100.00
2023-03-19T18:43:29.985Z,100.00
2023-03-19T18:48:38.318Z,100.00
2023-03-19T18:53:43.606Z,100.00
2023-03-19T18:58:50.016Z,100.00
2023-03-19T19:04:00.217Z,100.00
2023-03-19T19:09:06.920Z,100.00
2023-03-19T19:14:22.025Z,100.00
2023-03-19T19:19:31.505Z,100.00
2023-03-19T19:24:36.572Z,100.00
2023-03-19T19:29:41.929Z,100.00
2023-03-19T19:34:51.971Z,100.00
2023-03-19T19:39:57.989Z,100.00
2023-03-19T19:45:05.767Z,100.00
2023-03-19T19:50:22.378Z,100.00
2023-03-19T19:55:30.472Z,100.00
2023-03-19T20:00:36.641Z,100.00
2023-03-19T20:05:47.973Z,100.00
2023-03-19T20:10:53.590Z,100.00
2023-03-19T20:16:01.281Z,100.00
2023-03-19T20:21:15.166Z,100.00
2023-03-19T20:26:24.393Z,100.00
2023-03-19T20:31:33.172Z,100.00
2023-03-19T20:36:41.860Z,100.00
2023-03-19T20:41:49.916Z,100.00
2023-03-19T20:46:59.164Z,100.00
2023-03-19T20:52:09.544Z,100.00
2023-03-19T20:57:16.848Z,100.00
2023-03-19T21:02:25.458Z,100.00
2023-03-19T21:07:38.680Z,100.00
2023-03-19T21:12:45.152Z,100.00
2023-03-19T21:17:50.750Z,100.00
2023-03-19T21:23:05.250Z,100.00
2023-03-19T21:28:18.797Z,100.00
2023-03-19T21:33:27.174Z,100.00
2023-03-19T21:38:35.733Z,100.00
2023-03-19T21:43:45.666Z,100.00
2023-03-19T21:48:50.625Z,100.00
2023-03-19T21:53:58.768Z,100.00
2023-03-19T21:59:06.740Z,100.00
2023-03-19T22:04:14.146Z,100.00
2023-03-19T22:09:21.917Z,100.00
2023-03-19T22:14:29.096Z,100.00
2023-03-19T22:19:34.091Z,100.00
2023-03-19T22:24:44.428Z,100.00
2023-03-19T22:29:49.865Z,100.00
2023-03-19T22:34:55.168Z,100.00
2023-03-19T22:40:04.269Z,100.00
2023-03-19T22:45:17.129Z,100.00
2023-03-19T22:50:25.862Z,100.00
2023-03-19T22:55:35.894Z,100.00
2023-03-19T23:00:42.053Z,100.00
2023-03-19T23:05:50.994Z,100.00
2023-03-19T23:10:59.606Z,100.00
2023-03-19T23:16:10.384Z,100.00
2023-03-19T23:21:18.535Z,100.00
2023-03-19T23:26:32.036Z,100.00
2023-03-19T23:31:38.720Z,100.00
2023-03-19T23:36:44.738Z,100.00
2023-03-19T23:41:55.233Z,100.00
2023-03-19T23:47:03.837Z,100.00
2023-03-19T23:52:09.032Z,100.00
2023-03-19T23:57:21.126Z,100.00
